HTSO

Songea Airport

Songea, Tanzania
METAR HTSO 190400Z 09010KT 9999 SKC 17/11 Q1021
Observed Flight Rules
Sep-19 @ 04:00 UTC (2 hours ago) Visual Flight Rules
Wind Visibility Clouds
90° at 10 knots 10,000+ meters
  • Clear skies
Temperatures Readings
Current 17°C / 63°F
Dewpoint 11°C / 52°F
Humidity 68%
Altimeter 30.15" Hg
Pressure 1021 hPa
Elevation 1067
METAR HTSO 190400Z 09010KT 9999 SKC 17/11 Q1021
Observed Flight Rules
Sep-19 @ 04:00 UTC
(2 hours ago)
VFR
Wind Visibility
90° at 10 knots 10,000+ meters
Clouds
  • Clear skies
Temperature Dewpoint
17°C / 63°F 11°C / 52°F
Humidity Altimeter Pressure
68% 30.15" Hg 1021 hPa